sensor_id;sensor_type;location;lat;lon;timestamp;P1;durP1;ratioP1;P2;durP2;ratioP2
13975;SDS011;7062;49.792;9.946;2022-11-15T00:00:26;6.07;;;5.40;;
13975;SDS011;7062;49.792;9.946;2022-11-15T00:02:52;8.37;;;5.17;;
13975;SDS011;7062;49.792;9.946;2022-11-15T00:05:18;6.57;;;5.57;;
13975;SDS011;7062;49.792;9.946;2022-11-15T00:07:43;9.90;;;4.97;;
13975;SDS011;7062;49.792;9.946;2022-11-15T00:10:09;8.00;;;5.77;;
13975;SDS011;7062;49.792;9.946;2022-11-15T00:12:35;9.27;;;5.60;;
13975;SDS011;7062;49.792;9.946;2022-11-15T00:15:00;9.90;;;5.57;;
13975;SDS011;7062;49.792;9.946;2022-11-15T00:17:26;5.80;;;4.70;;
13975;SDS011;7062;49.792;9.946;2022-11-15T00:19:52;7.37;;;4.83;;
13975;SDS011;7062;49.792;9.946;2022-11-15T00:22:17;5.97;;;5.33;;
13975;SDS011;7062;49.792;9.946;2022-11-15T00:24:43;7.43;;;6.57;;
13975;SDS011;7062;49.792;9.946;2022-11-15T00:27:09;8.20;;;7.27;;
13975;SDS011;7062;49.792;9.946;2022-11-15T00:29:34;9.00;;;6.80;;
13975;SDS011;7062;49.792;9.946;2022-11-15T00:32:02;6.80;;;5.53;;
13975;SDS011;7062;49.792;9.946;2022-11-15T00:34:28;8.10;;;6.33;;
13975;SDS011;7062;49.792;9.946;2022-11-15T00:36:53;7.40;;;6.00;;
13975;SDS011;7062;49.792;9.946;2022-11-15T00:39:19;9.70;;;6.73;;
13975;SDS011;7062;49.792;9.946;2022-11-15T00:41:45;9.53;;;6.33;;
13975;SDS011;7062;49.792;9.946;2022-11-15T00:44:10;7.40;;;6.27;;
13975;SDS011;7062;49.792;9.946;2022-11-15T00:46:36;7.27;;;6.20;;
13975;SDS011;7062;49.792;9.946;2022-11-15T00:49:01;10.90;;;6.23;;
13975;SDS011;7062;49.792;9.946;2022-11-15T00:51:27;8.87;;;5.00;;
13975;SDS011;7062;49.792;9.946;2022-11-15T00:53:53;11.07;;;5.97;;
13975;SDS011;7062;49.792;9.946;2022-11-15T00:56:19;7.03;;;5.60;;
13975;SDS011;7062;49.792;9.946;2022-11-15T00:58:44;7.17;;;5.17;;
13975;SDS011;7062;49.792;9.946;2022-11-15T01:01:12;7.30;;;5.47;;
13975;SDS011;7062;49.792;9.946;2022-11-15T01:03:40;8.27;;;6.20;;
13975;SDS011;7062;49.792;9.946;2022-11-15T01:06:06;7.17;;;5.83;;
13975;SDS011;7062;49.792;9.946;2022-11-15T01:08:33;9.17;;;5.93;;
13975;SDS011;7062;49.792;9.946;2022-11-15T01:11:02;9.20;;;6.10;;
13975;SDS011;7062;49.792;9.946;2022-11-15T01:13:30;7.90;;;5.53;;
13975;SDS011;7062;49.792;9.946;2022-11-15T01:15:57;9.27;;;5.67;;
13975;SDS011;7062;49.792;9.946;2022-11-15T01:18:23;7.87;;;5.13;;
13975;SDS011;7062;49.792;9.946;2022-11-15T01:20:49;12.43;;;6.67;;
13975;SDS011;7062;49.792;9.946;2022-11-15T01:23:14;7.97;;;5.10;;
13975;SDS011;7062;49.792;9.946;2022-11-15T01:25:40;8.37;;;4.83;;
13975;SDS011;7062;49.792;9.946;2022-11-15T01:28:06;9.60;;;6.20;;
13975;SDS011;7062;49.792;9.946;2022-11-15T01:30:31;26.83;;;8.33;;
13975;SDS011;7062;49.792;9.946;2022-11-15T01:32:57;13.43;;;6.70;;
13975;SDS011;7062;49.792;9.946;2022-11-15T01:35:22;10.07;;;6.57;;
13975;SDS011;7062;49.792;9.946;2022-11-15T01:37:48;7.93;;;5.60;;
13975;SDS011;7062;49.792;9.946;2022-11-15T01:40:14;7.33;;;6.03;;
13975;SDS011;7062;49.792;9.946;2022-11-15T01:42:40;8.70;;;5.10;;
13975;SDS011;7062;49.792;9.946;2022-11-15T01:45:05;7.03;;;5.83;;
13975;SDS011;7062;49.792;9.946;2022-11-15T01:47:38;7.50;;;6.03;;
13975;SDS011;7062;49.792;9.946;2022-11-15T01:50:08;8.47;;;5.73;;
13975;SDS011;7062;49.792;9.946;2022-11-15T01:52:37;7.33;;;5.93;;
13975;SDS011;7062;49.792;9.946;2022-11-15T01:55:06;9.33;;;5.50;;
13975;SDS011;7062;49.792;9.946;2022-11-15T01:57:36;6.77;;;4.70;;
13975;SDS011;7062;49.792;9.946;2022-11-15T02:00:03;8.30;;;5.80;;
13975;SDS011;7062;49.792;9.946;2022-11-15T02:02:30;9.03;;;5.67;;
13975;SDS011;7062;49.792;9.946;2022-11-15T02:04:57;7.40;;;5.10;;
13975;SDS011;7062;49.792;9.946;2022-11-15T02:07:23;10.20;;;7.47;;
13975;SDS011;7062;49.792;9.946;2022-11-15T02:09:49;12.07;;;5.87;;
13975;SDS011;7062;49.792;9.946;2022-11-15T02:12:16;6.43;;;5.73;;
13975;SDS011;7062;49.792;9.946;2022-11-15T02:14:46;7.07;;;5.43;;
13975;SDS011;7062;49.792;9.946;2022-11-15T02:20:14;7.83;;;5.53;;
13975;SDS011;7062;49.792;9.946;2022-11-15T02:22:58;7.93;;;5.43;;
13975;SDS011;7062;49.792;9.946;2022-11-15T02:31:50;7.40;;;5.90;;
13975;SDS011;7062;49.792;9.946;2022-11-15T02:39:28;6.97;;;5.30;;
13975;SDS011;7062;49.792;9.946;2022-11-15T02:41:57;6.40;;;5.13;;
13975;SDS011;7062;49.792;9.946;2022-11-15T02:44:36;6.03;;;5.40;;
13975;SDS011;7062;49.792;9.946;2022-11-15T02:47:09;7.27;;;5.23;;
13975;SDS011;7062;49.792;9.946;2022-11-15T02:49:42;9.37;;;5.53;;
13975;SDS011;7062;49.792;9.946;2022-11-15T02:52:14;9.90;;;5.87;;
13975;SDS011;7062;49.792;9.946;2022-11-15T02:54:54;5.57;;;5.07;;
13975;SDS011;7062;49.792;9.946;2022-11-15T03:00:04;9.87;;;6.27;;
13975;SDS011;7062;49.792;9.946;2022-11-15T03:08:10;9.53;;;6.13;;
13975;SDS011;7062;49.792;9.946;2022-11-15T03:10:56;6.27;;;5.27;;
13975;SDS011;7062;49.792;9.946;2022-11-15T03:13:39;6.13;;;5.10;;
13975;SDS011;7062;49.792;9.946;2022-11-15T03:18:53;7.83;;;4.83;;
13975;SDS011;7062;49.792;9.946;2022-11-15T03:21:24;6.77;;;5.57;;
13975;SDS011;7062;49.792;9.946;2022-11-15T03:23:53;7.13;;;4.70;;
13975;SDS011;7062;49.792;9.946;2022-11-15T03:26:21;6.10;;;4.33;;
13975;SDS011;7062;49.792;9.946;2022-11-15T03:28:55;5.83;;;3.83;;
13975;SDS011;7062;49.792;9.946;2022-11-15T03:31:25;7.30;;;4.97;;
13975;SDS011;7062;49.792;9.946;2022-11-15T03:35:00;6.93;;;5.17;;
13975;SDS011;7062;49.792;9.946;2022-11-15T03:37:14;4.50;;;3.97;;
13975;SDS011;7062;49.792;9.946;2022-11-15T03:39:41;8.60;;;5.20;;
13975;SDS011;7062;49.792;9.946;2022-11-15T03:42:22;5.10;;;3.90;;
13975;SDS011;7062;49.792;9.946;2022-11-15T03:44:59;6.90;;;4.57;;
13975;SDS011;7062;49.792;9.946;2022-11-15T03:47:32;6.27;;;4.00;;
13975;SDS011;7062;49.792;9.946;2022-11-15T03:50:13;6.67;;;4.53;;
13975;SDS011;7062;49.792;9.946;2022-11-15T03:52:44;6.17;;;4.33;;
13975;SDS011;7062;49.792;9.946;2022-11-15T03:55:12;6.83;;;4.30;;
13975;SDS011;7062;49.792;9.946;2022-11-15T03:57:40;4.57;;;3.63;;
13975;SDS011;7062;49.792;9.946;2022-11-15T04:00:06;7.10;;;3.80;;
13975;SDS011;7062;49.792;9.946;2022-11-15T04:02:32;5.43;;;4.30;;
13975;SDS011;7062;49.792;9.946;2022-11-15T04:04:58;5.10;;;4.40;;
13975;SDS011;7062;49.792;9.946;2022-11-15T04:07:24;8.93;;;4.73;;
13975;SDS011;7062;49.792;9.946;2022-11-15T04:09:49;5.50;;;4.50;;
13975;SDS011;7062;49.792;9.946;2022-11-15T04:12:28;6.07;;;4.33;;
13975;SDS011;7062;49.792;9.946;2022-11-15T04:14:58;5.50;;;4.37;;
13975;SDS011;7062;49.792;9.946;2022-11-15T04:17:42;5.33;;;3.70;;
13975;SDS011;7062;49.792;9.946;2022-11-15T04:20:16;6.63;;;4.33;;
13975;SDS011;7062;49.792;9.946;2022-11-15T04:23:06;9.27;;;5.77;;
13975;SDS011;7062;49.792;9.946;2022-11-15T04:25:56;7.93;;;4.93;;
13975;SDS011;7062;49.792;9.946;2022-11-15T04:28:24;6.67;;;5.53;;
13975;SDS011;7062;49.792;9.946;2022-11-15T04:30:50;6.23;;;5.10;;
13975;SDS011;7062;49.792;9.946;2022-11-15T04:33:16;5.63;;;4.83;;
13975;SDS011;7062;49.792;9.946;2022-11-15T04:35:42;6.27;;;4.40;;
13975;SDS011;7062;49.792;9.946;2022-11-15T04:38:08;4.97;;;4.37;;
13975;SDS011;7062;49.792;9.946;2022-11-15T04:40:35;6.90;;;4.80;;
13975;SDS011;7062;49.792;9.946;2022-11-15T04:43:02;9.33;;;5.23;;
13975;SDS011;7062;49.792;9.946;2022-11-15T04:45:28;7.60;;;4.63;;
13975;SDS011;7062;49.792;9.946;2022-11-15T04:47:54;7.43;;;5.10;;
13975;SDS011;7062;49.792;9.946;2022-11-15T04:50:20;8.30;;;4.97;;
13975;SDS011;7062;49.792;9.946;2022-11-15T04:52:52;5.13;;;4.60;;
13975;SDS011;7062;49.792;9.946;2022-11-15T04:55:19;5.43;;;4.30;;
13975;SDS011;7062;49.792;9.946;2022-11-15T04:57:45;6.67;;;5.47;;
13975;SDS011;7062;49.792;9.946;2022-11-15T05:00:12;7.53;;;4.57;;
13975;SDS011;7062;49.792;9.946;2022-11-15T05:02:39;7.97;;;5.53;;
13975;SDS011;7062;49.792;9.946;2022-11-15T05:05:23;7.07;;;4.67;;
13975;SDS011;7062;49.792;9.946;2022-11-15T05:07:49;7.67;;;5.03;;
13975;SDS011;7062;49.792;9.946;2022-11-15T05:10:15;6.77;;;5.27;;
13975;SDS011;7062;49.792;9.946;2022-11-15T05:12:41;7.57;;;5.00;;
13975;SDS011;7062;49.792;9.946;2022-11-15T05:15:07;8.00;;;5.07;;
13975;SDS011;7062;49.792;9.946;2022-11-15T05:17:33;6.67;;;4.43;;
13975;SDS011;7062;49.792;9.946;2022-11-15T05:19:59;7.10;;;5.13;;
13975;SDS011;7062;49.792;9.946;2022-11-15T05:22:25;7.40;;;5.80;;
13975;SDS011;7062;49.792;9.946;2022-11-15T05:24:50;7.50;;;4.87;;
13975;SDS011;7062;49.792;9.946;2022-11-15T05:27:16;7.90;;;5.03;;
13975;SDS011;7062;49.792;9.946;2022-11-15T05:29:42;8.73;;;5.37;;
13975;SDS011;7062;49.792;9.946;2022-11-15T05:32:08;10.90;;;5.97;;
13975;SDS011;7062;49.792;9.946;2022-11-15T05:34:35;9.90;;;6.43;;
13975;SDS011;7062;49.792;9.946;2022-11-15T05:37:01;11.67;;;7.27;;
13975;SDS011;7062;49.792;9.946;2022-11-15T05:39:27;11.00;;;6.50;;
13975;SDS011;7062;49.792;9.946;2022-11-15T05:41:54;7.87;;;6.00;;
13975;SDS011;7062;49.792;9.946;2022-11-15T05:44:24;8.63;;;6.03;;
13975;SDS011;7062;49.792;9.946;2022-11-15T05:46:51;7.37;;;6.33;;
13975;SDS011;7062;49.792;9.946;2022-11-15T05:49:20;6.83;;;5.43;;
13975;SDS011;7062;49.792;9.946;2022-11-15T05:51:49;5.87;;;4.83;;
13975;SDS011;7062;49.792;9.946;2022-11-15T05:54:16;7.63;;;5.67;;
13975;SDS011;7062;49.792;9.946;2022-11-15T05:56:43;8.00;;;6.13;;
13975;SDS011;7062;49.792;9.946;2022-11-15T05:59:09;7.23;;;5.43;;
13975;SDS011;7062;49.792;9.946;2022-11-15T06:01:36;7.40;;;5.40;;
13975;SDS011;7062;49.792;9.946;2022-11-15T06:04:02;7.87;;;5.17;;
13975;SDS011;7062;49.792;9.946;2022-11-15T06:06:28;9.13;;;6.03;;
13975;SDS011;7062;49.792;9.946;2022-11-15T06:08:54;7.30;;;6.37;;
13975;SDS011;7062;49.792;9.946;2022-11-15T06:11:19;10.13;;;7.03;;
13975;SDS011;7062;49.792;9.946;2022-11-15T06:13:45;10.83;;;6.10;;
13975;SDS011;7062;49.792;9.946;2022-11-15T06:16:11;8.97;;;6.73;;
13975;SDS011;7062;49.792;9.946;2022-11-15T06:18:37;6.60;;;6.00;;
13975;SDS011;7062;49.792;9.946;2022-11-15T06:21:02;7.63;;;6.23;;
13975;SDS011;7062;49.792;9.946;2022-11-15T06:23:31;6.27;;;5.63;;
13975;SDS011;7062;49.792;9.946;2022-11-15T06:25:58;10.43;;;7.95;;
13975;SDS011;7062;49.792;9.946;2022-11-15T06:28:27;9.23;;;7.97;;
13975;SDS011;7062;49.792;9.946;2022-11-15T06:30:54;8.80;;;6.93;;
13975;SDS011;7062;49.792;9.946;2022-11-15T06:33:20;9.87;;;7.13;;
13975;SDS011;7062;49.792;9.946;2022-11-15T06:35:45;12.60;;;8.23;;
13975;SDS011;7062;49.792;9.946;2022-11-15T06:38:11;14.83;;;8.83;;
13975;SDS011;7062;49.792;9.946;2022-11-15T06:40:37;10.57;;;8.77;;
13975;SDS011;7062;49.792;9.946;2022-11-15T06:43:04;11.43;;;7.90;;
13975;SDS011;7062;49.792;9.946;2022-11-15T06:45:30;11.93;;;8.63;;
13975;SDS011;7062;49.792;9.946;2022-11-15T06:47:56;9.00;;;7.37;;
13975;SDS011;7062;49.792;9.946;2022-11-15T06:50:22;9.15;;;7.20;;
13975;SDS011;7062;49.792;9.946;2022-11-15T06:52:48;9.13;;;6.93;;
13975;SDS011;7062;49.792;9.946;2022-11-15T06:55:14;12.07;;;6.93;;
13975;SDS011;7062;49.792;9.946;2022-11-15T06:57:49;9.30;;;6.70;;
13975;SDS011;7062;49.792;9.946;2022-11-15T07:00:17;9.18;;;7.07;;
13975;SDS011;7062;49.792;9.946;2022-11-15T07:02:44;7.80;;;6.60;;
13975;SDS011;7062;49.792;9.946;2022-11-15T07:05:10;9.90;;;7.97;;
13975;SDS011;7062;49.792;9.946;2022-11-15T07:07:37;19.33;;;7.57;;
13975;SDS011;7062;49.792;9.946;2022-11-15T07:10:02;8.10;;;6.50;;
13975;SDS011;7062;49.792;9.946;2022-11-15T07:12:29;10.73;;;7.80;;
13975;SDS011;7062;49.792;9.946;2022-11-15T07:14:55;14.47;;;8.90;;
13975;SDS011;7062;49.792;9.946;2022-11-15T07:17:21;10.27;;;7.30;;
13975;SDS011;7062;49.792;9.946;2022-11-15T07:19:46;15.47;;;8.33;;
13975;SDS011;7062;49.792;9.946;2022-11-15T07:22:12;9.43;;;7.10;;
13975;SDS011;7062;49.792;9.946;2022-11-15T07:24:37;8.67;;;7.13;;
13975;SDS011;7062;49.792;9.946;2022-11-15T07:27:03;13.83;;;7.50;;
13975;SDS011;7062;49.792;9.946;2022-11-15T07:29:29;12.37;;;7.77;;
13975;SDS011;7062;49.792;9.946;2022-11-15T07:31:54;10.40;;;7.30;;
13975;SDS011;7062;49.792;9.946;2022-11-15T07:34:20;11.53;;;7.30;;
13975;SDS011;7062;49.792;9.946;2022-11-15T07:36:46;12.37;;;7.13;;
13975;SDS011;7062;49.792;9.946;2022-11-15T07:39:11;11.43;;;6.93;;
13975;SDS011;7062;49.792;9.946;2022-11-15T07:41:37;8.83;;;6.67;;
13975;SDS011;7062;49.792;9.946;2022-11-15T07:44:04;13.60;;;7.97;;
13975;SDS011;7062;49.792;9.946;2022-11-15T07:46:29;10.73;;;7.60;;
13975;SDS011;7062;49.792;9.946;2022-11-15T07:48:56;7.33;;;6.53;;
13975;SDS011;7062;49.792;9.946;2022-11-15T07:51:22;8.40;;;7.60;;
13975;SDS011;7062;49.792;9.946;2022-11-15T07:53:47;8.80;;;7.57;;
13975;SDS011;7062;49.792;9.946;2022-11-15T07:56:13;8.20;;;6.83;;
13975;SDS011;7062;49.792;9.946;2022-11-15T07:58:38;11.33;;;7.23;;
13975;SDS011;7062;49.792;9.946;2022-11-15T08:01:05;20.10;;;6.63;;
13975;SDS011;7062;49.792;9.946;2022-11-15T08:03:32;10.33;;;7.47;;
13975;SDS011;7062;49.792;9.946;2022-11-15T08:05:58;11.37;;;8.83;;
13975;SDS011;7062;49.792;9.946;2022-11-15T08:08:24;12.67;;;8.97;;
13975;SDS011;7062;49.792;9.946;2022-11-15T08:10:49;13.53;;;10.37;;
13975;SDS011;7062;49.792;9.946;2022-11-15T08:13:15;13.90;;;9.83;;
13975;SDS011;7062;49.792;9.946;2022-11-15T08:15:41;15.57;;;10.33;;
13975;SDS011;7062;49.792;9.946;2022-11-15T08:18:09;13.23;;;9.80;;
13975;SDS011;7062;49.792;9.946;2022-11-15T08:20:36;14.60;;;9.73;;
13975;SDS011;7062;49.792;9.946;2022-11-15T08:23:03;18.87;;;10.13;;
13975;SDS011;7062;49.792;9.946;2022-11-15T08:25:29;12.43;;;10.27;;
13975;SDS011;7062;49.792;9.946;2022-11-15T08:27:57;10.60;;;9.00;;
13975;SDS011;7062;49.792;9.946;2022-11-15T08:30:24;12.47;;;9.20;;
13975;SDS011;7062;49.792;9.946;2022-11-15T08:32:51;9.33;;;8.03;;
13975;SDS011;7062;49.792;9.946;2022-11-15T08:35:18;9.23;;;6.73;;
13975;SDS011;7062;49.792;9.946;2022-11-15T08:37:44;8.20;;;7.00;;
13975;SDS011;7062;49.792;9.946;2022-11-15T08:40:10;11.13;;;7.50;;
13975;SDS011;7062;49.792;9.946;2022-11-15T08:42:36;11.80;;;7.67;;
13975;SDS011;7062;49.792;9.946;2022-11-15T08:45:02;9.80;;;6.83;;
13975;SDS011;7062;49.792;9.946;2022-11-15T08:47:28;7.70;;;6.40;;
13975;SDS011;7062;49.792;9.946;2022-11-15T08:49:54;7.30;;;6.10;;
13975;SDS011;7062;49.792;9.946;2022-11-15T08:52:19;8.23;;;6.73;;
13975;SDS011;7062;49.792;9.946;2022-11-15T08:54:46;10.53;;;7.33;;
13975;SDS011;7062;49.792;9.946;2022-11-15T08:57:11;7.67;;;6.73;;
13975;SDS011;7062;49.792;9.946;2022-11-15T08:59:37;10.63;;;7.80;;
13975;SDS011;7062;49.792;9.946;2022-11-15T09:02:03;6.93;;;6.23;;
13975;SDS011;7062;49.792;9.946;2022-11-15T09:04:29;14.87;;;7.07;;
13975;SDS011;7062;49.792;9.946;2022-11-15T09:06:55;10.47;;;6.50;;
13975;SDS011;7062;49.792;9.946;2022-11-15T09:09:21;8.37;;;5.83;;
13975;SDS011;7062;49.792;9.946;2022-11-15T09:11:46;10.60;;;7.10;;
13975;SDS011;7062;49.792;9.946;2022-11-15T09:14:12;9.67;;;7.43;;
13975;SDS011;7062;49.792;9.946;2022-11-15T09:16:39;7.13;;;6.43;;
13975;SDS011;7062;49.792;9.946;2022-11-15T09:19:05;7.07;;;5.93;;
13975;SDS011;7062;49.792;9.946;2022-11-15T09:21:30;8.03;;;6.60;;
13975;SDS011;7062;49.792;9.946;2022-11-15T09:23:57;7.30;;;6.57;;
13975;SDS011;7062;49.792;9.946;2022-11-15T09:26:23;9.70;;;6.77;;
13975;SDS011;7062;49.792;9.946;2022-11-15T09:28:49;9.53;;;6.13;;
13975;SDS011;7062;49.792;9.946;2022-11-15T09:31:14;7.17;;;5.97;;
13975;SDS011;7062;49.792;9.946;2022-11-15T09:33:42;9.20;;;7.60;;
13975;SDS011;7062;49.792;9.946;2022-11-15T09:36:09;10.77;;;7.07;;
13975;SDS011;7062;49.792;9.946;2022-11-15T09:38:35;7.63;;;6.67;;
13975;SDS011;7062;49.792;9.946;2022-11-15T09:43:59;9.37;;;6.03;;
13975;SDS011;7062;49.792;9.946;2022-11-15T09:49:33;10.73;;;6.47;;
13975;SDS011;7062;49.792;9.946;2022-11-15T09:51:59;10.70;;;6.77;;
13975;SDS011;7062;49.792;9.946;2022-11-15T09:57:04;11.00;;;6.83;;
13975;SDS011;7062;49.792;9.946;2022-11-15T10:04:42;15.47;;;7.17;;
13975;SDS011;7062;49.792;9.946;2022-11-15T10:07:15;9.50;;;6.80;;
13975;SDS011;7062;49.792;9.946;2022-11-15T10:12:45;9.70;;;6.17;;
13975;SDS011;7062;49.792;9.946;2022-11-15T10:15:14;8.77;;;5.73;;
13975;SDS011;7062;49.792;9.946;2022-11-15T10:20:26;8.93;;;6.53;;
13975;SDS011;7062;49.792;9.946;2022-11-15T10:22:55;5.00;;;4.50;;
13975;SDS011;7062;49.792;9.946;2022-11-15T10:25:25;8.80;;;5.33;;
13975;SDS011;7062;49.792;9.946;2022-11-15T10:27:54;5.87;;;3.87;;
13975;SDS011;7062;49.792;9.946;2022-11-15T10:30:40;8.07;;;4.53;;
13975;SDS011;7062;49.792;9.946;2022-11-15T10:33:17;3.93;;;3.20;;
13975;SDS011;7062;49.792;9.946;2022-11-15T10:41:14;4.73;;;3.60;;
13975;SDS011;7062;49.792;9.946;2022-11-15T10:46:32;4.93;;;3.10;;
13975;SDS011;7062;49.792;9.946;2022-11-15T10:52:02;4.77;;;4.37;;
13975;SDS011;7062;49.792;9.946;2022-11-15T10:54:47;5.47;;;3.77;;
13975;SDS011;7062;49.792;9.946;2022-11-15T10:59:49;9.00;;;3.97;;
13975;SDS011;7062;49.792;9.946;2022-11-15T11:02:24;7.10;;;3.57;;
13975;SDS011;7062;49.792;9.946;2022-11-15T11:04:54;4.83;;;3.50;;
13975;SDS011;7062;49.792;9.946;2022-11-15T11:07:21;4.80;;;3.80;;
13975;SDS011;7062;49.792;9.946;2022-11-15T11:09:58;8.43;;;5.07;;
13975;SDS011;7062;49.792;9.946;2022-11-15T11:12:31;7.63;;;4.30;;
13975;SDS011;7062;49.792;9.946;2022-11-15T11:15:00;3.63;;;3.30;;
13975;SDS011;7062;49.792;9.946;2022-11-15T11:20:20;7.07;;;4.17;;
13975;SDS011;7062;49.792;9.946;2022-11-15T11:34:20;6.30;;;4.60;;
13975;SDS011;7062;49.792;9.946;2022-11-15T11:48:12;5.33;;;3.03;;
13975;SDS011;7062;49.792;9.946;2022-11-15T11:51:01;7.27;;;3.53;;
13975;SDS011;7062;49.792;9.946;2022-11-15T11:53:48;4.23;;;3.60;;
13975;SDS011;7062;49.792;9.946;2022-11-15T11:56:35;6.00;;;3.80;;
13975;SDS011;7062;49.792;9.946;2022-11-15T11:59:10;6.47;;;4.23;;
13975;SDS011;7062;49.792;9.946;2022-11-15T12:01:48;4.50;;;3.37;;
13975;SDS011;7062;49.792;9.946;2022-11-15T12:04:15;3.37;;;2.70;;
13975;SDS011;7062;49.792;9.946;2022-11-15T12:06:49;11.40;;;3.60;;
13975;SDS011;7062;49.792;9.946;2022-11-15T12:12:09;6.00;;;2.80;;
13975;SDS011;7062;49.792;9.946;2022-11-15T12:17:13;6.27;;;3.07;;
13975;SDS011;7062;49.792;9.946;2022-11-15T12:19:44;4.33;;;2.90;;
13975;SDS011;7062;49.792;9.946;2022-11-15T12:22:17;5.83;;;3.03;;
13975;SDS011;7062;49.792;9.946;2022-11-15T12:24:51;4.00;;;2.97;;
13975;SDS011;7062;49.792;9.946;2022-11-15T12:27:32;4.77;;;3.43;;
13975;SDS011;7062;49.792;9.946;2022-11-15T12:30:04;6.33;;;4.27;;
13975;SDS011;7062;49.792;9.946;2022-11-15T12:32:38;5.30;;;3.40;;
13975;SDS011;7062;49.792;9.946;2022-11-15T12:35:24;5.30;;;3.93;;
13975;SDS011;7062;49.792;9.946;2022-11-15T12:37:51;5.57;;;3.47;;
13975;SDS011;7062;49.792;9.946;2022-11-15T12:40:22;7.87;;;3.87;;
13975;SDS011;7062;49.792;9.946;2022-11-15T12:45:34;6.17;;;2.90;;
13975;SDS011;7062;49.792;9.946;2022-11-15T12:50:53;3.67;;;2.43;;
13975;SDS011;7062;49.792;9.946;2022-11-15T13:06:43;5.20;;;3.30;;
13975;SDS011;7062;49.792;9.946;2022-11-15T13:11:54;5.57;;;3.90;;
13975;SDS011;7062;49.792;9.946;2022-11-15T13:17:09;4.00;;;3.53;;
13975;SDS011;7062;49.792;9.946;2022-11-15T13:20:28;3.70;;;2.83;;
13975;SDS011;7062;49.792;9.946;2022-11-15T13:22:46;5.17;;;3.90;;
13975;SDS011;7062;49.792;9.946;2022-11-15T13:30:40;4.23;;;3.17;;
13975;SDS011;7062;49.792;9.946;2022-11-15T13:33:31;6.53;;;4.07;;
13975;SDS011;7062;49.792;9.946;2022-11-15T13:35:58;4.17;;;3.77;;
13975;SDS011;7062;49.792;9.946;2022-11-15T13:38:43;4.43;;;3.60;;
13975;SDS011;7062;49.792;9.946;2022-11-15T13:41:20;3.90;;;3.60;;
13975;SDS011;7062;49.792;9.946;2022-11-15T13:43:48;7.37;;;4.23;;
13975;SDS011;7062;49.792;9.946;2022-11-15T13:46:20;5.43;;;3.90;;
13975;SDS011;7062;49.792;9.946;2022-11-15T13:48:54;5.00;;;4.50;;
13975;SDS011;7062;49.792;9.946;2022-11-15T13:51:42;5.83;;;4.23;;
13975;SDS011;7062;49.792;9.946;2022-11-15T13:57:13;8.00;;;5.53;;
13975;SDS011;7062;49.792;9.946;2022-11-15T14:02:24;6.03;;;5.00;;
13975;SDS011;7062;49.792;9.946;2022-11-15T14:04:55;6.67;;;6.07;;
13975;SDS011;7062;49.792;9.946;2022-11-15T14:07:25;8.97;;;5.00;;
13975;SDS011;7062;49.792;9.946;2022-11-15T14:09:52;9.23;;;6.57;;
13975;SDS011;7062;49.792;9.946;2022-11-15T14:14:50;15.67;;;5.47;;
13975;SDS011;7062;49.792;9.946;2022-11-15T14:17:21;6.63;;;5.77;;
13975;SDS011;7062;49.792;9.946;2022-11-15T14:19:59;5.27;;;4.77;;
13975;SDS011;7062;49.792;9.946;2022-11-15T14:22:26;5.77;;;5.10;;
13975;SDS011;7062;49.792;9.946;2022-11-15T14:27:38;7.90;;;5.63;;
13975;SDS011;7062;49.792;9.946;2022-11-15T14:30:12;6.63;;;5.03;;
13975;SDS011;7062;49.792;9.946;2022-11-15T14:32:49;6.53;;;5.37;;
13975;SDS011;7062;49.792;9.946;2022-11-15T14:35:17;8.93;;;4.90;;
13975;SDS011;7062;49.792;9.946;2022-11-15T14:37:47;8.40;;;5.30;;
13975;SDS011;7062;49.792;9.946;2022-11-15T14:40:14;6.97;;;4.90;;
13975;SDS011;7062;49.792;9.946;2022-11-15T14:42:46;7.37;;;6.47;;
13975;SDS011;7062;49.792;9.946;2022-11-15T14:45:14;9.83;;;6.33;;
13975;SDS011;7062;49.792;9.946;2022-11-15T14:47:47;7.30;;;6.07;;
13975;SDS011;7062;49.792;9.946;2022-11-15T14:52:40;7.93;;;6.37;;
13975;SDS011;7062;49.792;9.946;2022-11-15T14:55:17;11.23;;;7.20;;
13975;SDS011;7062;49.792;9.946;2022-11-15T14:57:52;7.67;;;6.07;;
13975;SDS011;7062;49.792;9.946;2022-11-15T15:00:18;9.07;;;6.43;;
13975;SDS011;7062;49.792;9.946;2022-11-15T15:02:44;9.33;;;6.17;;
13975;SDS011;7062;49.792;9.946;2022-11-15T15:07:42;6.60;;;5.97;;
13975;SDS011;7062;49.792;9.946;2022-11-15T15:10:08;10.93;;;8.57;;
13975;SDS011;7062;49.792;9.946;2022-11-15T15:12:34;9.37;;;6.07;;
13975;SDS011;7062;49.792;9.946;2022-11-15T15:15:00;8.43;;;5.83;;
13975;SDS011;7062;49.792;9.946;2022-11-15T15:17:26;7.40;;;5.70;;
13975;SDS011;7062;49.792;9.946;2022-11-15T15:19:51;10.50;;;5.47;;
13975;SDS011;7062;49.792;9.946;2022-11-15T15:22:18;11.10;;;5.80;;
13975;SDS011;7062;49.792;9.946;2022-11-15T15:24:46;7.33;;;5.07;;
13975;SDS011;7062;49.792;9.946;2022-11-15T15:27:13;6.63;;;4.70;;
13975;SDS011;7062;49.792;9.946;2022-11-15T15:29:39;10.73;;;6.17;;
13975;SDS011;7062;49.792;9.946;2022-11-15T15:32:05;9.90;;;5.70;;
13975;SDS011;7062;49.792;9.946;2022-11-15T15:34:31;13.77;;;6.63;;
13975;SDS011;7062;49.792;9.946;2022-11-15T15:39:51;8.50;;;6.60;;
13975;SDS011;7062;49.792;9.946;2022-11-15T15:42:19;11.10;;;6.67;;
13975;SDS011;7062;49.792;9.946;2022-11-15T15:44:46;18.03;;;8.40;;
13975;SDS011;7062;49.792;9.946;2022-11-15T15:47:13;8.37;;;6.23;;
13975;SDS011;7062;49.792;9.946;2022-11-15T15:49:41;10.80;;;6.63;;
13975;SDS011;7062;49.792;9.946;2022-11-15T15:52:07;9.90;;;7.47;;
13975;SDS011;7062;49.792;9.946;2022-11-15T15:54:32;12.90;;;7.70;;
13975;SDS011;7062;49.792;9.946;2022-11-15T15:56:58;6.40;;;5.67;;
13975;SDS011;7062;49.792;9.946;2022-11-15T15:59:23;12.20;;;6.27;;
13975;SDS011;7062;49.792;9.946;2022-11-15T16:01:49;9.90;;;7.33;;
13975;SDS011;7062;49.792;9.946;2022-11-15T16:04:15;11.07;;;7.93;;
13975;SDS011;7062;49.792;9.946;2022-11-15T16:06:40;9.37;;;7.53;;
13975;SDS011;7062;49.792;9.946;2022-11-15T16:09:16;9.33;;;6.40;;
13975;SDS011;7062;49.792;9.946;2022-11-15T16:11:44;10.40;;;6.67;;
13975;SDS011;7062;49.792;9.946;2022-11-15T16:14:10;12.00;;;6.07;;
13975;SDS011;7062;49.792;9.946;2022-11-15T16:16:36;8.00;;;7.03;;
13975;SDS011;7062;49.792;9.946;2022-11-15T16:19:03;11.50;;;6.37;;
13975;SDS011;7062;49.792;9.946;2022-11-15T16:21:29;9.03;;;6.50;;
13975;SDS011;7062;49.792;9.946;2022-11-15T16:23:55;10.93;;;6.80;;
13975;SDS011;7062;49.792;9.946;2022-11-15T16:26:24;9.87;;;8.87;;
13975;SDS011;7062;49.792;9.946;2022-11-15T16:28:53;10.37;;;7.90;;
13975;SDS011;7062;49.792;9.946;2022-11-15T16:31:19;8.03;;;5.93;;
13975;SDS011;7062;49.792;9.946;2022-11-15T16:33:48;7.53;;;5.83;;
13975;SDS011;7062;49.792;9.946;2022-11-15T16:36:35;11.63;;;6.13;;
13975;SDS011;7062;49.792;9.946;2022-11-15T16:39:00;10.97;;;6.27;;
13975;SDS011;7062;49.792;9.946;2022-11-15T16:41:29;9.20;;;6.17;;
13975;SDS011;7062;49.792;9.946;2022-11-15T16:43:55;7.90;;;5.93;;
13975;SDS011;7062;49.792;9.946;2022-11-15T16:46:26;7.63;;;5.93;;
13975;SDS011;7062;49.792;9.946;2022-11-15T16:48:53;10.63;;;6.27;;
13975;SDS011;7062;49.792;9.946;2022-11-15T16:51:19;8.77;;;6.30;;
13975;SDS011;7062;49.792;9.946;2022-11-15T16:53:44;12.97;;;7.10;;
13975;SDS011;7062;49.792;9.946;2022-11-15T16:56:21;8.47;;;6.20;;
13975;SDS011;7062;49.792;9.946;2022-11-15T16:58:47;7.97;;;7.03;;
13975;SDS011;7062;49.792;9.946;2022-11-15T17:01:18;11.00;;;6.57;;
13975;SDS011;7062;49.792;9.946;2022-11-15T17:03:48;10.83;;;6.73;;
13975;SDS011;7062;49.792;9.946;2022-11-15T17:06:14;11.57;;;7.40;;
13975;SDS011;7062;49.792;9.946;2022-11-15T17:08:39;8.50;;;6.17;;
13975;SDS011;7062;49.792;9.946;2022-11-15T17:11:06;9.23;;;7.20;;
13975;SDS011;7062;49.792;9.946;2022-11-15T17:13:32;12.03;;;7.23;;
13975;SDS011;7062;49.792;9.946;2022-11-15T17:16:05;12.40;;;6.43;;
13975;SDS011;7062;49.792;9.946;2022-11-15T17:18:32;8.33;;;6.00;;
13975;SDS011;7062;49.792;9.946;2022-11-15T17:21:02;7.57;;;5.77;;
13975;SDS011;7062;49.792;9.946;2022-11-15T17:23:41;11.30;;;6.77;;
13975;SDS011;7062;49.792;9.946;2022-11-15T17:26:08;8.87;;;6.67;;